Time;durP1;ratioP1;P1;durP2;ratioP2;P2;SDS_P1;SDS_P2;PMS_P1;PMS_P2;Temp;Humidity;BMP_temperature;BMP_pressure;BME280_temperature;BME280_humidity;BME280_pressure;Samples;Min_cycle;Max_cycle;Signal;HPM_P1;HPM_P2
2022/04/21 00:02:16;;;;;;;5.30;1.77;;;;;;;;;;5106338;27;20392;-73
2022/04/21 00:04:42;;;;;;;4.80;1.90;;;;;;;;;;5105784;27;20049;-73
2022/04/21 00:07:08;;;;;;;4.35;1.60;;;;;;;;;;5105043;27;20038;-74
2022/04/21 00:09:34;;;;;;;4.50;1.73;;;;;;;;;;5104179;27;20095;-73
2022/04/21 00:12:00;;;;;;;3.97;1.70;;;;;;;;;;5105768;27;20046;-73
2022/04/21 00:14:26;;;;;;;4.50;1.80;;;;;;;;;;5105768;27;20046;-73
2022/04/21 00:16:54;;;;;;;4.13;1.70;;;;;;;;;;5105938;27;20196;-73
2022/04/21 00:19:20;;;;;;;5.90;1.70;;;;;;;;;;5105786;27;20682;-73
2022/04/21 00:24:31;;;;;;;3.95;1.63;;;;;;;;;;5104520;27;20043;-73
2022/04/21 00:26:57;;;;;;;4.30;1.42;;;;;;;;;;5085039;28;20038;-72
2022/04/21 00:29:23;;;;;;;4.78;1.80;;;;;;;;;;5085237;28;20051;-73
2022/04/21 00:31:49;;;;;;;4.97;1.90;;;;;;;;;;5100720;27;20051;-74
2022/04/21 00:34:18;;;;;;;4.30;1.70;;;;;;;;;;5105266;27;20511;-73
2022/04/21 00:36:44;;;;;;;4.50;1.80;;;;;;;;;;5088746;28;20594;-73
2022/04/21 00:39:10;;;;;;;4.35;1.95;;;;;;;;;;5123477;27;20046;-73
2022/04/21 00:41:36;;;;;;;4.90;1.83;;;;;;;;;;5105167;28;20047;-72
2022/04/21 00:44:02;;;;;;;4.95;1.77;;;;;;;;;;5105397;28;20046;-73
2022/04/21 00:46:28;;;;;;;5.78;1.98;;;;;;;;;;5104885;28;20046;-73
2022/04/21 00:48:55;;;;;;;4.15;1.63;;;;;;;;;;5105069;28;20074;-73
2022/04/21 00:51:23;;;;;;;5.75;1.90;;;;;;;;;;5088533;28;20548;-73
2022/04/21 00:53:49;;;;;;;4.20;1.75;;;;;;;;;;5087279;28;20069;-73
2022/04/21 00:56:15;;;;;;;4.55;2.00;;;;;;;;;;5102226;28;20626;-73
2022/04/21 00:58:41;;;;;;;4.20;1.80;;;;;;;;;;5084889;28;20051;-73
2022/04/21 01:02:46;;;;;;;5.22;2.20;;;;;;;;;;5084788;28;20043;-73
2022/04/21 01:03:55;;;;;;;4.72;1.90;;;;;;;;;;5084698;28;20442;-73
2022/04/21 01:06:22;;;;;;;4.90;1.70;;;;;;;;;;5084639;28;20066;-72
2022/04/21 01:08:48;;;;;;;4.43;1.88;;;;;;;;;;5084554;28;20051;-73
2022/04/21 01:11:16;;;;;;;5.50;1.92;;;;;;;;;;5086986;28;20069;-73
2022/04/21 01:13:42;;;;;;;5.10;1.92;;;;;;;;;;5090130;27;20496;-73
2022/04/21 01:16:08;;;;;;;4.40;1.90;;;;;;;;;;5108954;27;20027;-73
2022/04/21 01:18:34;;;;;;;4.75;2.20;;;;;;;;;;5109026;27;20069;-72
2022/04/21 01:21:00;;;;;;;4.35;1.70;;;;;;;;;;5108821;27;20042;-72
2022/04/21 01:23:26;;;;;;;4.43;1.90;;;;;;;;;;5108583;27;20039;-72
2022/04/21 01:25:53;;;;;;;7.38;2.03;;;;;;;;;;5109133;27;20523;-72
2022/04/21 01:28:19;;;;;;;6.18;2.40;;;;;;;;;;5109364;27;20039;-72
2022/04/21 01:30:45;;;;;;;4.85;1.90;;;;;;;;;;5108738;27;20132;-72
2022/04/21 01:33:11;;;;;;;5.35;1.90;;;;;;;;;;5109262;27;20051;-73
2022/04/21 01:35:38;;;;;;;4.57;1.98;;;;;;;;;;5108594;27;20064;-72
2022/04/21 01:43:33;;;;;;;4.88;2.20;;;;;;;;;;5108917;27;20594;-73
2022/04/21 01:45:59;;;;;;;4.10;1.70;;;;;;;;;;5108378;27;20035;-72
2022/04/21 01:48:25;;;;;;;4.47;1.90;;;;;;;;;;5091382;27;20427;-73
2022/04/21 01:50:52;;;;;;;4.88;2.03;;;;;;;;;;5085435;27;20058;-73
2022/04/21 01:53:18;;;;;;;5.00;2.20;;;;;;;;;;5092300;27;20043;-73
2022/04/21 01:55:44;;;;;;;4.60;1.98;;;;;;;;;;5107942;27;20039;-73
2022/04/21 01:58:10;;;;;;;4.82;1.95;;;;;;;;;;5108506;27;20414;-73
2022/04/21 02:00:36;;;;;;;3.88;1.90;;;;;;;;;;5108248;27;20058;-73
2022/04/21 02:03:02;;;;;;;5.25;2.05;;;;;;;;;;5107582;27;20039;-73
2022/04/21 02:05:29;;;;;;;4.85;2.03;;;;;;;;;;5091148;27;20042;-72
2022/04/21 02:07:54;;;;;;;4.38;1.85;;;;;;;;;;5125363;27;20050;-72
2022/04/21 02:10:24;;;;;;;4.68;1.80;;;;;;;;;;5091362;27;20043;-73
2022/04/21 02:12:50;;;;;;;4.70;2.13;;;;;;;;;;5107762;27;20081;-72
2022/04/21 02:15:19;;;;;;;5.00;2.10;;;;;;;;;;5107704;27;20050;-73
2022/04/21 02:17:46;;;;;;;5.10;2.25;;;;;;;;;;5107092;27;20042;-73
2022/04/21 02:20:16;;;;;;;5.03;2.17;;;;;;;;;;5107664;27;20039;-72
2022/04/21 02:22:43;;;;;;;4.68;2.10;;;;;;;;;;5106797;27;20047;-73
2022/04/21 02:25:09;;;;;;;5.70;2.10;;;;;;;;;;5107509;27;20039;-73
2022/04/21 02:27:37;;;;;;;5.43;2.13;;;;;;;;;;5107549;27;20043;-72
2022/04/21 02:30:03;;;;;;;5.70;2.10;;;;;;;;;;5107483;27;20058;-73
2022/04/21 02:32:29;;;;;;;4.63;2.10;;;;;;;;;;5105707;27;20123;-73
2022/04/21 02:34:55;;;;;;;4.78;2.13;;;;;;;;;;5107765;27;20051;-73
2022/04/21 02:37:22;;;;;;;5.00;2.25;;;;;;;;;;5106983;27;20632;-73
2022/04/21 02:39:49;;;;;;;5.70;2.55;;;;;;;;;;5090115;27;20672;-73
2022/04/21 02:42:15;;;;;;;5.32;2.47;;;;;;;;;;5090624;27;20126;-72
2022/04/21 02:44:41;;;;;;;7.05;2.20;;;;;;;;;;5107538;27;20071;-73
2022/04/21 02:47:08;;;;;;;5.28;2.40;;;;;;;;;;5090022;27;20220;-73
2022/04/21 02:49:37;;;;;;;5.05;1.90;;;;;;;;;;5107428;27;20483;-73
2022/04/21 02:52:07;;;;;;;6.13;2.10;;;;;;;;;;5089776;27;20571;-73
2022/04/21 02:57:21;;;;;;;5.13;2.00;;;;;;;;;;5106938;27;20043;-73
2022/04/21 02:59:47;;;;;;;6.95;2.72;;;;;;;;;;5106396;27;20035;-73
2022/04/21 03:02:13;;;;;;;4.90;2.20;;;;;;;;;;5106500;27;20055;-72
2022/04/21 03:04:39;;;;;;;5.22;2.30;;;;;;;;;;5106799;27;20602;-73
2022/04/21 03:07:05;;;;;;;6.15;2.45;;;;;;;;;;5096037;28;20047;-73
2022/04/21 03:09:32;;;;;;;5.25;2.17;;;;;;;;;;5086179;28;20035;-72
2022/04/21 03:12:04;;;;;;;4.50;2.20;;;;;;;;;;5086678;28;20036;-72
2022/04/21 03:14:31;;;;;;;5.53;2.42;;;;;;;;;;5086146;28;20501;-71
2022/04/21 03:16:58;;;;;;;5.70;2.50;;;;;;;;;;5086196;28;20035;-71
2022/04/21 03:19:24;;;;;;;5.80;2.50;;;;;;;;;;5086451;28;20039;-73
2022/04/21 03:24:34;;;;;;;4.50;2.10;;;;;;;;;;5086037;28;20667;-73
2022/04/21 03:27:01;;;;;;;5.03;2.22;;;;;;;;;;5086037;28;20054;-73
2022/04/21 03:29:27;;;;;;;5.68;2.30;;;;;;;;;;5086051;28;20043;-72
2022/04/21 03:31:53;;;;;;;5.35;2.33;;;;;;;;;;5086218;28;20120;-73
2022/04/21 03:34:21;;;;;;;4.78;2.10;;;;;;;;;;5086065;28;20048;-73
2022/04/21 03:36:48;;;;;;;4.93;2.10;;;;;;;;;;5086060;28;20048;-74
2022/04/21 03:39:15;;;;;;;5.32;2.45;;;;;;;;;;5086081;28;20508;-72
2022/04/21 03:41:41;;;;;;;4.97;2.00;;;;;;;;;;5086148;28;20082;-74
2022/04/21 03:44:07;;;;;;;5.57;2.13;;;;;;;;;;5086232;28;20164;-73
2022/04/21 03:46:34;;;;;;;6.28;2.75;;;;;;;;;;5086444;28;20157;-73
2022/04/21 03:49:00;;;;;;;4.80;2.20;;;;;;;;;;5085846;28;20090;-73
2022/04/21 03:51:27;;;;;;;4.13;1.80;;;;;;;;;;5085881;28;20043;-73
2022/04/21 03:53:53;;;;;;;4.70;1.90;;;;;;;;;;5086187;28;20071;-73
2022/04/21 03:56:19;;;;;;;5.95;2.10;;;;;;;;;;5086062;28;20092;-73
2022/04/21 03:58:45;;;;;;;3.80;1.77;;;;;;;;;;5085623;28;20039;-73
2022/04/21 04:01:11;;;;;;;4.93;2.10;;;;;;;;;;5103435;28;20039;-73
2022/04/21 04:03:38;;;;;;;4.50;1.90;;;;;;;;;;5085154;28;20039;-73
2022/04/21 04:10:51;;;;;;;5.07;2.10;;;;;;;;;;5085790;28;20092;-73
2022/04/21 04:11:35;;;;;;;4.57;2.00;;;;;;;;;;5085633;28;20039;-73
2022/04/21 04:14:01;;;;;;;4.82;2.08;;;;;;;;;;5085470;28;20043;-73
2022/04/21 04:16:28;;;;;;;5.38;2.22;;;;;;;;;;5085244;28;20050;-73
2022/04/21 04:18:54;;;;;;;6.10;2.60;;;;;;;;;;5103471;28;20053;-73
2022/04/21 04:21:20;;;;;;;4.95;2.30;;;;;;;;;;5103336;28;20043;-73
2022/04/21 04:23:46;;;;;;;5.57;2.30;;;;;;;;;;5085047;28;20522;-73
2022/04/21 04:26:12;;;;;;;4.80;2.17;;;;;;;;;;5085547;28;20104;-73
2022/04/21 04:28:38;;;;;;;4.68;2.10;;;;;;;;;;5084941;28;20043;-72
2022/04/21 04:31:04;;;;;;;5.82;2.58;;;;;;;;;;5085490;28;20559;-73
2022/04/21 04:33:30;;;;;;;5.20;2.20;;;;;;;;;;5085183;28;20122;-73
2022/04/21 04:35:56;;;;;;;5.22;2.35;;;;;;;;;;5085003;28;20562;-73
2022/04/21 04:38:22;;;;;;;4.78;2.25;;;;;;;;;;5084630;28;20054;-74
2022/04/21 04:40:48;;;;;;;5.00;2.47;;;;;;;;;;5085204;28;20695;-73
2022/04/21 04:43:14;;;;;;;5.00;2.30;;;;;;;;;;5085149;28;20047;-73
2022/04/21 04:48:25;;;;;;;6.25;2.20;;;;;;;;;;5091827;28;20035;-73
2022/04/21 04:50:51;;;;;;;6.18;2.42;;;;;;;;;;5110369;28;20084;-73
2022/04/21 04:53:17;;;;;;;4.95;2.10;;;;;;;;;;5110261;28;20051;-73
2022/04/21 04:55:43;;;;;;;6.43;2.40;;;;;;;;;;5092311;28;20424;-72
2022/04/21 04:58:09;;;;;;;5.10;2.33;;;;;;;;;;5092189;28;20103;-72
2022/04/21 05:00:35;;;;;;;6.22;2.45;;;;;;;;;;5091694;28;20138;-73
2022/04/21 05:03:01;;;;;;;5.57;2.50;;;;;;;;;;5074852;28;20527;-73
2022/04/21 05:05:28;;;;;;;5.43;2.47;;;;;;;;;;5091527;28;20046;-72
2022/04/21 05:07:54;;;;;;;5.68;2.33;;;;;;;;;;5091866;28;20071;-73
2022/04/21 05:10:22;;;;;;;4.93;2.40;;;;;;;;;;5092324;28;20104;-73
2022/04/21 05:12:48;;;;;;;5.60;2.42;;;;;;;;;;5103360;27;20036;-73
2022/04/21 05:15:14;;;;;;;5.78;2.28;;;;;;;;;;5111577;27;20061;-73
2022/04/21 05:17:40;;;;;;;4.70;2.30;;;;;;;;;;5119303;27;20138;-73
2022/04/21 05:20:06;;;;;;;4.97;2.20;;;;;;;;;;5132564;27;20125;-73
2022/04/21 05:22:37;;;;;;;5.93;2.25;;;;;;;;;;5132773;27;20034;-72
2022/04/21 05:25:04;;;;;;;5.03;2.10;;;;;;;;;;5133201;27;20042;-72
2022/04/21 05:27:30;;;;;;;6.35;2.70;;;;;;;;;;5132949;27;20601;-73
2022/04/21 05:32:53;;;;;;;5.75;2.67;;;;;;;;;;5111961;27;20054;-75
2022/04/21 05:35:19;;;;;;;5.30;2.40;;;;;;;;;;5132430;27;20497;-74
2022/04/21 05:37:45;;;;;;;6.68;2.38;;;;;;;;;;5131850;27;20103;-73
2022/04/21 05:40:11;;;;;;;5.45;3.03;;;;;;;;;;5115608;27;20042;-74
2022/04/21 05:42:41;;;;;;;5.68;2.50;;;;;;;;;;5132279;27;20081;-73
2022/04/21 05:45:08;;;;;;;6.85;2.35;;;;;;;;;;5087959;27;20660;-73
2022/04/21 05:47:36;;;;;;;6.38;2.92;;;;;;;;;;5068114;27;20118;-72
2022/04/21 05:50:02;;;;;;;8.48;2.60;;;;;;;;;;5090698;27;20051;-72
2022/04/21 05:52:30;;;;;;;6.15;2.70;;;;;;;;;;5097663;27;20078;-74
2022/04/21 05:54:56;;;;;;;5.75;2.55;;;;;;;;;;5115626;27;20047;-73
2022/04/21 05:57:22;;;;;;;6.30;2.97;;;;;;;;;;5097424;27;20643;-73
2022/04/21 05:59:48;;;;;;;5.35;2.40;;;;;;;;;;5073532;27;20047;-72
2022/04/21 06:02:14;;;;;;;6.70;3.53;;;;;;;;;;5095464;27;20483;-71
2022/04/21 06:04:40;;;;;;;7.50;3.80;;;;;;;;;;5089204;28;20042;-71
2022/04/21 06:07:06;;;;;;;7.28;3.97;;;;;;;;;;5105710;28;20104;-71
2022/04/21 06:09:31;;;;;;;6.80;3.53;;;;;;;;;;5084631;28;20345;-70
2022/04/21 06:11:58;;;;;;;6.38;3.15;;;;;;;;;;5067478;28;20263;-71
2022/04/21 06:14:26;;;;;;;7.28;3.70;;;;;;;;;;5102268;28;20142;-71
2022/04/21 06:16:52;;;;;;;7.70;3.20;;;;;;;;;;5083761;28;20047;-71
2022/04/21 06:19:18;;;;;;;7.00;2.85;;;;;;;;;;5083593;28;20047;-71
2022/04/21 06:21:44;;;;;;;7.53;3.35;;;;;;;;;;5102226;28;20568;-71
2022/04/21 06:24:10;;;;;;;8.00;3.50;;;;;;;;;;5101085;28;20313;-72
2022/04/21 06:26:38;;;;;;;5.78;2.95;;;;;;;;;;5067615;28;20128;-73
2022/04/21 06:29:05;;;;;;;7.32;3.20;;;;;;;;;;5086243;28;20039;-69
2022/04/21 06:31:31;;;;;;;10.32;3.95;;;;;;;;;;5102093;28;20056;-73
2022/04/21 06:33:58;;;;;;;12.73;4.63;;;;;;;;;;5117671;27;20052;-72
2022/04/21 06:36:24;;;;;;;10.68;5.00;;;;;;;;;;5083518;28;20063;-73
2022/04/21 06:38:51;;;;;;;8.45;4.60;;;;;;;;;;5066160;28;20039;-73
2022/04/21 06:41:17;;;;;;;13.27;4.70;;;;;;;;;;5078699;27;20058;-72
2022/04/21 06:49:12;;;;;;;10.88;4.97;;;;;;;;;;5083398;28;20261;-72
2022/04/21 06:51:40;;;;;;;9.50;4.68;;;;;;;;;;5084697;28;20711;-72
2022/04/21 06:54:06;;;;;;;11.45;4.25;;;;;;;;;;5083002;28;20073;-72
2022/04/21 06:56:32;;;;;;;8.43;3.75;;;;;;;;;;5083512;28;20275;-72
2022/04/21 06:58:59;;;;;;;11.73;3.97;;;;;;;;;;5083461;28;20479;-72
2022/04/21 07:01:25;;;;;;;9.93;3.80;;;;;;;;;;5083302;28;20249;-72
2022/04/21 07:03:51;;;;;;;9.27;3.70;;;;;;;;;;5083154;28;20122;-72
2022/04/21 07:06:17;;;;;;;13.32;4.45;;;;;;;;;;5083136;28;20039;-71
2022/04/21 07:08:43;;;;;;;8.98;3.30;;;;;;;;;;5082549;28;20051;-72
2022/04/21 07:11:09;;;;;;;8.10;3.50;;;;;;;;;;5065961;28;20196;-71
2022/04/21 07:13:35;;;;;;;8.52;3.03;;;;;;;;;;5066017;28;20039;-72
2022/04/21 07:16:01;;;;;;;6.85;2.92;;;;;;;;;;5082707;28;20303;-71
2022/04/21 07:18:27;;;;;;;6.05;2.75;;;;;;;;;;5083135;28;20071;-71
2022/04/21 07:20:53;;;;;;;8.73;3.10;;;;;;;;;;5100912;28;20484;-71
2022/04/21 07:23:19;;;;;;;8.25;2.67;;;;;;;;;;5082467;28;20059;-71
2022/04/21 07:25:45;;;;;;;6.53;2.83;;;;;;;;;;5082533;28;20138;-73
2022/04/21 07:28:11;;;;;;;6.05;2.70;;;;;;;;;;5082947;28;20441;-72
2022/04/21 07:30:37;;;;;;;6.13;2.30;;;;;;;;;;5082716;28;20428;-71
2022/04/21 07:33:03;;;;;;;5.40;2.22;;;;;;;;;;5100194;27;20076;-71
2022/04/21 07:35:29;;;;;;;5.85;2.50;;;;;;;;;;5102966;27;20046;-72
2022/04/21 07:37:55;;;;;;;6.88;2.15;;;;;;;;;;5102553;27;20322;-72
2022/04/21 07:40:23;;;;;;;7.15;2.20;;;;;;;;;;5102972;27;20064;-71
2022/04/21 07:42:49;;;;;;;4.68;1.98;;;;;;;;;;5102389;27;20087;-73
2022/04/21 07:45:15;;;;;;;3.92;1.80;;;;;;;;;;5103366;27;20355;-74
2022/04/21 07:47:41;;;;;;;5.43;2.00;;;;;;;;;;5102725;27;20508;-73
2022/04/21 07:50:07;;;;;;;5.15;1.80;;;;;;;;;;5086734;28;20062;-72
2022/04/21 07:55:26;;;;;;;4.10;1.55;;;;;;;;;;5082492;28;20047;-72
2022/04/21 07:57:53;;;;;;;5.70;1.80;;;;;;;;;;5082052;28;20123;-73
2022/04/21 08:00:19;;;;;;;3.60;1.52;;;;;;;;;;5082542;28;20225;-73
2022/04/21 08:02:46;;;;;;;5.25;1.58;;;;;;;;;;5082291;28;20367;-73
2022/04/21 08:05:14;;;;;;;4.53;1.63;;;;;;;;;;5082347;28;20072;-73
2022/04/21 08:07:40;;;;;;;5.50;1.60;;;;;;;;;;5081801;28;20043;-73
2022/04/21 08:10:09;;;;;;;4.97;1.67;;;;;;;;;;5082360;28;20054;-72
2022/04/21 08:12:39;;;;;;;3.30;1.40;;;;;;;;;;5085512;27;20581;-73
2022/04/21 08:15:07;;;;;;;5.10;1.70;;;;;;;;;;5102257;27;20271;-73
2022/04/21 08:17:33;;;;;;;4.20;1.65;;;;;;;;;;5102242;27;20035;-72
2022/04/21 08:19:59;;;;;;;6.55;1.92;;;;;;;;;;5084521;28;20088;-71
2022/04/21 08:22:25;;;;;;;4.05;1.60;;;;;;;;;;5101174;28;20059;-71
2022/04/21 08:33:04;;;;;;;;;;;;;;;;;;5102120;28;20070;-72
2022/04/21 08:35:30;;;;;;;4.30;1.48;;;;;;;;;;5102265;27;20352;-72
2022/04/21 08:37:56;;;;;;;3.90;1.50;;;;;;;;;;5084892;27;20087;-72
2022/04/21 08:40:23;;;;;;;3.83;1.30;;;;;;;;;;5120389;27;20187;-71
2022/04/21 08:42:52;;;;;;;4.00;1.70;;;;;;;;;;5101738;28;20059;-72
2022/04/21 08:45:18;;;;;;;3.95;1.50;;;;;;;;;;5101566;28;20047;-72
2022/04/21 08:47:46;;;;;;;3.63;1.58;;;;;;;;;;5101366;28;20035;-72
2022/04/21 08:50:14;;;;;;;4.10;1.65;;;;;;;;;;5084937;28;20264;-73
2022/04/21 08:52:41;;;;;;;5.25;1.50;;;;;;;;;;5101601;28;20078;-72
2022/04/21 08:55:08;;;;;;;4.95;1.38;;;;;;;;;;5089962;28;20112;-72
2022/04/21 08:57:37;;;;;;;4.20;1.75;;;;;;;;;;5081252;28;20036;-72
2022/04/21 09:00:05;;;;;;;4.60;1.73;;;;;;;;;;5081184;28;20040;-72
2022/04/21 09:02:42;;;;;;;4.13;1.42;;;;;;;;;;5081365;28;20127;-73
2022/04/21 09:05:08;;;;;;;3.88;1.50;;;;;;;;;;5064825;28;20040;-72
2022/04/21 09:07:48;;;;;;;6.25;1.73;;;;;;;;;;5065401;28;20130;-72
2022/04/21 09:10:15;;;;;;;3.50;1.33;;;;;;;;;;5081541;28;20248;-72
2022/04/21 09:12:45;;;;;;;5.45;1.58;;;;;;;;;;5064406;28;20043;-72
2022/04/21 09:15:14;;;;;;;4.65;1.50;;;;;;;;;;5084940;28;20080;-72
2022/04/21 09:17:41;;;;;;;4.18;1.30;;;;;;;;;;5101239;28;20047;-73
2022/04/21 09:20:07;;;;;;;4.47;1.60;;;;;;;;;;5101891;28;20283;-73
2022/04/21 09:22:33;;;;;;;4.82;1.50;;;;;;;;;;5101318;28;20118;-72
2022/04/21 09:25:00;;;;;;;4.07;1.42;;;;;;;;;;5101802;28;20066;-73
2022/04/21 09:27:48;;;;;;;3.88;1.48;;;;;;;;;;5101280;28;20100;-72
2022/04/21 09:30:14;;;;;;;4.05;1.55;;;;;;;;;;5101283;28;20093;-72
2022/04/21 09:32:41;;;;;;;3.95;1.50;;;;;;;;;;5103412;27;20131;-73
2022/04/21 09:35:08;;;;;;;4.70;1.70;;;;;;;;;;5105364;27;20089;-72
2022/04/21 09:37:44;;;;;;;5.65;1.70;;;;;;;;;;5104565;27;20122;-73
2022/04/21 09:40:10;;;;;;;5.53;1.50;;;;;;;;;;5105331;27;20538;-72
2022/04/21 09:42:36;;;;;;;4.35;1.58;;;;;;;;;;5106523;27;20043;-73
2022/04/21 09:48:05;;;;;;;4.60;1.67;;;;;;;;;;5060203;27;20036;-71
2022/04/21 09:50:32;;;;;;;5.10;1.55;;;;;;;;;;5088378;27;20507;-71
2022/04/21 09:53:03;;;;;;;4.68;1.55;;;;;;;;;;5104014;27;20035;-72
2022/04/21 09:55:32;;;;;;;4.50;1.60;;;;;;;;;;5088139;27;20047;-71
2022/04/21 09:58:08;;;;;;;4.68;1.70;;;;;;;;;;5104660;27;20327;-72
2022/04/21 10:00:35;;;;;;;5.05;1.58;;;;;;;;;;5104738;27;20043;-72
2022/04/21 10:03:02;;;;;;;3.88;1.40;;;;;;;;;;5104599;27;20043;-72
2022/04/21 10:05:30;;;;;;;4.38;1.55;;;;;;;;;;5104860;27;20050;-72
2022/04/21 10:07:57;;;;;;;3.75;1.38;;;;;;;;;;5087477;27;20074;-72
2022/04/21 10:10:26;;;;;;;7.05;1.42;;;;;;;;;;5104691;27;20062;-72
2022/04/21 10:12:53;;;;;;;3.42;1.45;;;;;;;;;;5104740;27;20054;-72
2022/04/21 10:15:19;;;;;;;4.75;1.55;;;;;;;;;;5105515;27;20068;-72
2022/04/21 10:17:45;;;;;;;4.30;1.55;;;;;;;;;;5100294;27;20042;-72
2022/04/21 10:20:11;;;;;;;4.78;1.65;;;;;;;;;;5080120;28;20216;-73
2022/04/21 10:22:37;;;;;;;4.15;1.70;;;;;;;;;;5086891;28;20534;-73
2022/04/21 10:25:05;;;;;;;3.60;1.40;;;;;;;;;;5086983;28;20058;-72
2022/04/21 10:27:38;;;;;;;3.65;1.40;;;;;;;;;;5086447;28;20051;-73
2022/04/21 10:30:11;;;;;;;4.53;1.67;;;;;;;;;;5086538;28;20052;-72
2022/04/21 10:32:47;;;;;;;4.82;1.60;;;;;;;;;;5086275;28;20692;-73
2022/04/21 10:35:34;;;;;;;5.85;1.50;;;;;;;;;;5086874;28;20053;-73
2022/04/21 10:38:15;;;;;;;5.28;1.58;;;;;;;;;;5072699;28;20052;-73
2022/04/21 10:40:55;;;;;;;3.42;1.38;;;;;;;;;;5086340;28;20051;-73
2022/04/21 10:43:21;;;;;;;3.88;1.40;;;;;;;;;;5086097;28;20047;-73
2022/04/21 10:46:03;;;;;;;3.65;1.45;;;;;;;;;;5086250;28;20046;-73
2022/04/21 10:48:43;;;;;;;3.65;1.40;;;;;;;;;;5084919;28;20088;-73
2022/04/21 10:51:09;;;;;;;4.28;1.60;;;;;;;;;;5083639;28;20139;-73
2022/04/21 10:59:30;;;;;;;5.95;1.50;;;;;;;;;;5083277;28;20040;-74
2022/04/21 11:02:10;;;;;;;5.05;1.60;;;;;;;;;;5082924;28;20539;-74
2022/04/21 11:04:36;;;;;;;5.68;1.65;;;;;;;;;;5101718;28;20082;-73
2022/04/21 11:07:06;;;;;;;3.35;1.30;;;;;;;;;;5082724;28;20225;-73
2022/04/21 11:09:44;;;;;;;3.22;1.25;;;;;;;;;;5082446;28;20261;-73
2022/04/21 11:12:13;;;;;;;4.07;1.35;;;;;;;;;;5083282;28;20268;-74
2022/04/21 11:14:40;;;;;;;4.55;1.40;;;;;;;;;;5082740;28;20043;-72
2022/04/21 11:17:06;;;;;;;5.13;1.55;;;;;;;;;;5100995;28;20407;-73
2022/04/21 11:19:36;;;;;;;4.25;1.60;;;;;;;;;;5082851;28;20039;-73
2022/04/21 11:22:08;;;;;;;6.32;1.48;;;;;;;;;;5082407;28;20051;-72
2022/04/21 11:24:53;;;;;;;3.78;1.38;;;;;;;;;;5082890;28;20192;-74
2022/04/21 11:27:19;;;;;;;3.97;1.30;;;;;;;;;;5082701;28;20326;-72
2022/04/21 11:29:45;;;;;;;3.67;1.48;;;;;;;;;;5082920;28;20517;-72
2022/04/21 11:32:15;;;;;;;3.78;1.50;;;;;;;;;;5082722;28;20132;-72
2022/04/21 11:34:42;;;;;;;4.38;1.50;;;;;;;;;;5082607;28;20634;-72
2022/04/21 11:37:08;;;;;;;5.60;1.52;;;;;;;;;;5083056;28;20388;-73
2022/04/21 11:39:38;;;;;;;3.67;1.50;;;;;;;;;;5065530;28;20047;-73
2022/04/21 11:42:04;;;;;;;3.67;1.38;;;;;;;;;;5082438;28;20252;-73
2022/04/21 11:44:30;;;;;;;4.20;1.58;;;;;;;;;;5082319;28;20077;-73
2022/04/21 11:46:56;;;;;;;4.85;1.50;;;;;;;;;;5082322;28;20044;-73
2022/04/21 11:49:22;;;;;;;4.53;1.60;;;;;;;;;;5082015;28;20051;-72
2022/04/21 11:51:55;;;;;;;3.97;1.40;;;;;;;;;;5082404;28;20051;-72
2022/04/21 11:54:21;;;;;;;4.97;1.40;;;;;;;;;;5065025;28;20417;-73
2022/04/21 11:56:51;;;;;;;3.38;1.40;;;;;;;;;;5080917;28;20044;-72
2022/04/21 11:59:17;;;;;;;5.60;1.48;;;;;;;;;;5065646;28;20147;-72
2022/04/21 12:07:16;;;;;;;4.10;1.40;;;;;;;;;;5099773;28;20040;-72
2022/04/21 12:09:43;;;;;;;4.07;1.75;;;;;;;;;;5100284;28;20044;-72
2022/04/21 12:12:10;;;;;;;5.65;1.48;;;;;;;;;;5082209;28;20111;-72
2022/04/21 12:14:39;;;;;;;5.25;1.50;;;;;;;;;;5064848;28;20640;-73
2022/04/21 12:17:06;;;;;;;4.90;1.67;;;;;;;;;;5081970;28;20043;-73
2022/04/21 12:19:39;;;;;;;4.45;1.52;;;;;;;;;;5081558;28;20070;-72
2022/04/21 12:22:09;;;;;;;3.70;1.35;;;;;;;;;;5081605;28;20082;-73
2022/04/21 12:24:39;;;;;;;4.30;1.38;;;;;;;;;;5100444;28;20354;-72
2022/04/21 12:27:06;;;;;;;6.32;1.80;;;;;;;;;;5100087;28;20265;-73
2022/04/21 12:29:45;;;;;;;4.72;1.83;;;;;;;;;;5064628;28;20279;-73
2022/04/21 12:32:11;;;;;;;5.38;1.77;;;;;;;;;;5081718;28;20122;-74
2022/04/21 12:34:40;;;;;;;4.30;1.52;;;;;;;;;;5081756;28;20123;-75
2022/04/21 12:37:06;;;;;;;5.68;1.45;;;;;;;;;;5080595;27;20219;-75
2022/04/21 12:39:32;;;;;;;5.97;1.48;;;;;;;;;;5070022;27;20035;-75
2022/04/21 12:41:59;;;;;;;3.85;1.70;;;;;;;;;;5119859;27;20653;-75
2022/04/21 12:44:26;;;;;;;5.70;1.42;;;;;;;;;;5118737;27;20412;-75
2022/04/21 12:47:01;;;;;;;5.10;1.50;;;;;;;;;;5083252;28;20050;-75
2022/04/21 12:49:46;;;;;;;4.57;1.60;;;;;;;;;;5105549;27;20126;-75
2022/04/21 12:52:12;;;;;;;7.90;1.83;;;;;;;;;;5120066;27;20049;-75
2022/04/21 12:54:38;;;;;;;4.35;1.90;;;;;;;;;;5122224;27;20039;-74
2022/04/21 12:57:07;;;;;;;4.82;1.40;;;;;;;;;;5121843;27;20379;-75
2022/04/21 12:59:33;;;;;;;3.53;1.35;;;;;;;;;;5109781;28;20099;-76
2022/04/21 13:01:59;;;;;;;6.40;2.10;;;;;;;;;;5103601;28;20079;-75
2022/04/21 13:04:25;;;;;;;4.82;1.90;;;;;;;;;;5101818;28;20121;-76
2022/04/21 13:06:51;;;;;;;8.30;2.47;;;;;;;;;;5103307;27;20054;-73
2022/04/21 13:09:17;;;;;;;6.05;2.33;;;;;;;;;;5103496;27;20735;-74
2022/04/21 13:11:43;;;;;;;8.05;2.63;;;;;;;;;;5083912;27;20037;-73
2022/04/21 13:14:09;;;;;;;5.75;2.03;;;;;;;;;;5107500;27;20043;-74
2022/04/21 13:16:35;;;;;;;5.72;2.03;;;;;;;;;;5104887;27;20042;-74
2022/04/21 13:19:01;;;;;;;6.15;1.80;;;;;;;;;;5094503;28;20049;-74
2022/04/21 13:24:11;;;;;;;;;;;;;;;;;;5088626;28;20051;-75
2022/04/21 13:26:37;;;;;;;11.23;2.92;;;;;;;;;;5086802;28;20257;-74
2022/04/21 13:29:06;;;;;;;8.95;2.28;;;;;;;;;;5068511;28;20257;-74
2022/04/21 13:34:16;;;;;;;5.95;1.80;;;;;;;;;;5085666;28;20423;-74
2022/04/21 13:36:42;;;;;;;5.43;1.95;;;;;;;;;;5085436;28;20043;-74
2022/04/21 13:39:08;;;;;;;6.82;1.77;;;;;;;;;;5084808;28;20501;-74
2022/04/21 13:41:35;;;;;;;6.22;1.90;;;;;;;;;;5085442;28;20062;-74
2022/04/21 13:44:01;;;;;;;5.97;1.90;;;;;;;;;;5068149;28;20050;-74
2022/04/21 13:46:28;;;;;;;7.07;2.35;;;;;;;;;;5084848;28;20128;-74
2022/04/21 13:48:54;;;;;;;6.72;2.08;;;;;;;;;;5085287;28;20340;-74
2022/04/21 13:51:20;;;;;;;4.97;2.10;;;;;;;;;;5103328;28;20578;-74
2022/04/21 13:53:46;;;;;;;5.75;2.17;;;;;;;;;;5084695;28;20051;-75
2022/04/21 13:56:12;;;;;;;5.97;1.70;;;;;;;;;;5084963;28;20047;-74
2022/04/21 13:58:38;;;;;;;6.47;2.00;;;;;;;;;;5084353;28;20295;-74
2022/04/21 14:01:04;;;;;;;4.18;1.80;;;;;;;;;;5084430;28;20066;-75
2022/04/21 14:03:36;;;;;;;5.38;1.60;;;;;;;;;;5084060;28;20058;-75
2022/04/21 14:06:06;;;;;;;7.72;2.15;;;;;;;;;;5084841;28;20074;-74
2022/04/21 14:08:33;;;;;;;6.93;2.22;;;;;;;;;;5084118;28;20585;-74
2022/04/21 14:10:59;;;;;;;5.43;2.00;;;;;;;;;;5101469;28;20258;-74
2022/04/21 14:13:25;;;;;;;4.70;1.70;;;;;;;;;;5101467;28;20055;-74
2022/04/21 14:15:52;;;;;;;6.70;2.10;;;;;;;;;;5101225;28;20342;-74
2022/04/21 14:18:18;;;;;;;4.82;2.03;;;;;;;;;;5101485;28;20119;-74
2022/04/21 14:20:44;;;;;;;5.10;2.05;;;;;;;;;;5101315;28;20134;-75
2022/04/21 14:23:09;;;;;;;6.13;2.50;;;;;;;;;;5101254;28;20190;-74
2022/04/21 14:25:35;;;;;;;6.45;2.20;;;;;;;;;;5101159;28;20373;-75
2022/04/21 14:28:02;;;;;;;5.13;2.17;;;;;;;;;;5101037;28;20198;-74
2022/04/21 14:30:27;;;;;;;5.97;2.05;;;;;;;;;;5100791;28;20055;-74
2022/04/21 14:32:55;;;;;;;4.93;1.92;;;;;;;;;;5101377;28;20043;-74
2022/04/21 14:35:23;;;;;;;5.88;1.80;;;;;;;;;;5084026;28;20043;-73
2022/04/21 14:46:04;;;;;;;5.13;1.70;;;;;;;;;;5083887;28;20144;-74
2022/04/21 14:48:30;;;;;;;4.65;1.80;;;;;;;;;;5083781;28;20292;-74
2022/04/21 14:50:56;;;;;;;5.75;1.88;;;;;;;;;;5100960;28;20165;-74
2022/04/21 14:53:25;;;;;;;4.65;1.92;;;;;;;;;;5083762;28;20130;-74
2022/04/21 14:55:52;;;;;;;4.68;1.90;;;;;;;;;;5083325;28;20043;-74
2022/04/21 14:58:18;;;;;;;4.70;1.80;;;;;;;;;;5100731;28;20039;-74
2022/04/21 15:00:45;;;;;;;6.03;2.08;;;;;;;;;;5100383;28;20043;-74
2022/04/21 15:03:12;;;;;;;4.93;2.15;;;;;;;;;;5100077;28;20059;-74
2022/04/21 15:05:38;;;;;;;5.20;2.33;;;;;;;;;;5083675;28;20074;-74
2022/04/21 15:08:05;;;;;;;5.63;2.40;;;;;;;;;;5099705;28;20104;-74
2022/04/21 15:10:45;;;;;;;4.22;2.00;;;;;;;;;;5084086;28;20089;-74
2022/04/21 15:13:11;;;;;;;4.18;1.75;;;;;;;;;;5083080;28;20267;-74
2022/04/21 15:15:38;;;;;;;4.60;2.10;;;;;;;;;;5100631;28;20210;-74
2022/04/21 15:18:04;;;;;;;6.10;2.45;;;;;;;;;;5100257;28;20135;-74
2022/04/21 15:20:30;;;;;;;5.32;2.60;;;;;;;;;;5101524;28;20521;-74
2022/04/21 15:22:57;;;;;;;6.78;2.97;;;;;;;;;;5100067;28;20312;-74
2022/04/21 15:25:23;;;;;;;5.05;2.10;;;;;;;;;;5082986;28;20039;-74
2022/04/21 15:27:50;;;;;;;5.32;2.30;;;;;;;;;;5101340;28;20342;-74
2022/04/21 15:30:17;;;;;;;5.57;2.15;;;;;;;;;;5082790;28;20093;-74
2022/04/21 15:32:43;;;;;;;5.63;1.98;;;;;;;;;;5099496;28;20261;-74
2022/04/21 15:35:09;;;;;;;5.65;2.20;;;;;;;;;;5100085;28;20145;-74
2022/04/21 15:37:35;;;;;;;4.38;2.03;;;;;;;;;;5082700;28;20048;-74
2022/04/21 15:40:05;;;;;;;5.45;2.45;;;;;;;;;;5086516;27;20437;-74
2022/04/21 15:42:31;;;;;;;5.35;2.40;;;;;;;;;;5072428;27;20043;-74
2022/04/21 15:45:02;;;;;;;8.25;2.85;;;;;;;;;;5073227;27;20993;-75
2022/04/21 15:47:28;;;;;;;6.93;2.20;;;;;;;;;;5094959;27;20059;-75
2022/04/21 15:49:54;;;;;;;6.20;2.50;;;;;;;;;;5096684;28;20114;-75
2022/04/21 15:52:20;;;;;;;7.55;2.67;;;;;;;;;;5091153;28;20040;-74